sensor_id;sensor_type;location;lat;lon;timestamp;pressure;altitude;pressure_sealevel;temperature;humidity
3250;BME280;1637;42.020;23.992;2023-03-16T00:01:17;91685.59;;;5.25;89.24
3250;BME280;1637;42.020;23.992;2023-03-16T00:03:45;91681.06;;;5.22;89.25
3250;BME280;1637;42.020;23.992;2023-03-16T00:06:12;91679.13;;;5.26;88.41
3250;BME280;1637;42.020;23.992;2023-03-16T00:08:39;91680.38;;;5.17;89.51
3250;BME280;1637;42.020;23.992;2023-03-16T00:11:08;91676.94;;;5.17;88.70
3250;BME280;1637;42.020;23.992;2023-03-16T00:13:36;91676.91;;;5.21;89.24
3250;BME280;1637;42.020;23.992;2023-03-16T00:16:03;91684.59;;;5.08;89.59
3250;BME280;1637;42.020;23.992;2023-03-16T00:18:32;91679.44;;;5.35;88.19
3250;BME280;1637;42.020;23.992;2023-03-16T00:21:05;91689.50;;;5.50;88.36
3250;BME280;1637;42.020;23.992;2023-03-16T00:23:32;91688.66;;;5.61;85.95
3250;BME280;1637;42.020;23.992;2023-03-16T00:26:02;91686.97;;;5.40;86.41
3250;BME280;1637;42.020;23.992;2023-03-16T00:28:31;91683.97;;;5.34;87.74
3250;BME280;1637;42.020;23.992;2023-03-16T00:31:00;91683.56;;;5.39;90.74
3250;BME280;1637;42.020;23.992;2023-03-16T00:33:26;91691.22;;;5.68;90.92
3250;BME280;1637;42.020;23.992;2023-03-16T00:35:53;91690.47;;;5.67;94.03
3250;BME280;1637;42.020;23.992;2023-03-16T00:38:29;91699.56;;;5.66;94.79
3250;BME280;1637;42.020;23.992;2023-03-16T00:40:56;91698.28;;;5.44;97.26
3250;BME280;1637;42.020;23.992;2023-03-16T00:43:23;91698.09;;;5.24;99.70
3250;BME280;1637;42.020;23.992;2023-03-16T00:45:56;91694.34;;;5.59;98.23
3250;BME280;1637;42.020;23.992;2023-03-16T00:48:23;91692.50;;;5.90;95.75
3250;BME280;1637;42.020;23.992;2023-03-16T00:50:50;91693.19;;;5.98;93.01
3250;BME280;1637;42.020;23.992;2023-03-16T00:53:18;91692.97;;;5.81;88.34
3250;BME280;1637;42.020;23.992;2023-03-16T00:55:47;91696.91;;;5.66;87.57
3250;BME280;1637;42.020;23.992;2023-03-16T00:58:14;91688.44;;;5.78;87.76
3250;BME280;1637;42.020;23.992;2023-03-16T01:00:41;91694.00;;;5.91;87.80
3250;BME280;1637;42.020;23.992;2023-03-16T01:03:08;91686.44;;;5.90;87.79
3250;BME280;1637;42.020;23.992;2023-03-16T01:05:39;91686.81;;;5.88;87.02
3250;BME280;1637;42.020;23.992;2023-03-16T01:08:06;91681.88;;;5.90;87.36
3250;BME280;1637;42.020;23.992;2023-03-16T01:10:33;91688.34;;;5.85;88.58
3250;BME280;1637;42.020;23.992;2023-03-16T01:13:02;91690.09;;;5.65;88.75
3250;BME280;1637;42.020;23.992;2023-03-16T01:15:29;91691.53;;;5.39;89.40
3250;BME280;1637;42.020;23.992;2023-03-16T01:17:57;91695.38;;;5.31;91.95
3250;BME280;1637;42.020;23.992;2023-03-16T01:20:24;91689.28;;;5.34;93.01
3250;BME280;1637;42.020;23.992;2023-03-16T01:22:50;91689.63;;;5.40;92.36
3250;BME280;1637;42.020;23.992;2023-03-16T01:25:17;91684.56;;;5.52;91.65
3250;BME280;1637;42.020;23.992;2023-03-16T01:27:45;91683.84;;;5.48;91.54
3250;BME280;1637;42.020;23.992;2023-03-16T01:30:14;91694.25;;;5.32;93.35
3250;BME280;1637;42.020;23.992;2023-03-16T01:32:41;91689.94;;;5.45;92.93
3250;BME280;1637;42.020;23.992;2023-03-16T01:35:08;91692.56;;;5.49;93.96
3250;BME280;1637;42.020;23.992;2023-03-16T01:37:36;91688.78;;;5.46;95.19
3250;BME280;1637;42.020;23.992;2023-03-16T01:40:03;91692.50;;;5.56;95.24
3250;BME280;1637;42.020;23.992;2023-03-16T01:42:31;91693.59;;;5.59;94.39
3250;BME280;1637;42.020;23.992;2023-03-16T01:48:08;91697.78;;;5.60;95.97
3250;BME280;1637;42.020;23.992;2023-03-16T01:50:35;91699.22;;;5.64;95.30
3250;BME280;1637;42.020;23.992;2023-03-16T01:53:02;91701.09;;;5.67;95.92
3250;BME280;1637;42.020;23.992;2023-03-16T01:55:29;91682.25;;;5.55;94.83
3250;BME280;1637;42.020;23.992;2023-03-16T01:57:56;91699.34;;;5.53;94.46
3250;BME280;1637;42.020;23.992;2023-03-16T02:00:23;91703.78;;;5.64;95.98
3250;BME280;1637;42.020;23.992;2023-03-16T02:02:59;91697.00;;;5.59;95.64
3250;BME280;1637;42.020;23.992;2023-03-16T02:05:31;91706.88;;;5.59;96.96
3250;BME280;1637;42.020;23.992;2023-03-16T02:08:00;91703.88;;;5.57;96.19
3250;BME280;1637;42.020;23.992;2023-03-16T02:10:28;91705.56;;;5.40;96.27
3250;BME280;1637;42.020;23.992;2023-03-16T02:12:55;91691.59;;;5.32;97.24
3250;BME280;1637;42.020;23.992;2023-03-16T02:15:23;91703.72;;;5.33;97.29
3250;BME280;1637;42.020;23.992;2023-03-16T02:17:50;91696.22;;;5.21;97.92
3250;BME280;1637;42.020;23.992;2023-03-16T02:20:25;91698.44;;;5.30;98.59
3250;BME280;1637;42.020;23.992;2023-03-16T02:22:57;91700.19;;;5.43;97.33
3250;BME280;1637;42.020;23.992;2023-03-16T02:25:28;91707.69;;;5.52;97.67
3250;BME280;1637;42.020;23.992;2023-03-16T02:28:02;91708.94;;;5.40;97.13
3250;BME280;1637;42.020;23.992;2023-03-16T02:30:33;91702.72;;;5.58;94.98
3250;BME280;1637;42.020;23.992;2023-03-16T02:33:00;91700.66;;;5.35;96.38
3250;BME280;1637;42.020;23.992;2023-03-16T02:35:29;91705.19;;;5.38;97.75
3250;BME280;1637;42.020;23.992;2023-03-16T02:37:56;91710.63;;;5.61;95.58
3250;BME280;1637;42.020;23.992;2023-03-16T02:40:25;91714.84;;;5.59;95.38
3250;BME280;1637;42.020;23.992;2023-03-16T02:43:04;91713.53;;;5.74;95.82
3250;BME280;1637;42.020;23.992;2023-03-16T02:45:37;91708.19;;;5.77;97.21
3250;BME280;1637;42.020;23.992;2023-03-16T02:48:08;91710.56;;;5.68;98.20
3250;BME280;1637;42.020;23.992;2023-03-16T02:50:43;91715.97;;;5.99;96.86
3250;BME280;1637;42.020;23.992;2023-03-16T02:53:11;91714.97;;;5.82;99.15
3250;BME280;1637;42.020;23.992;2023-03-16T02:55:38;91715.81;;;5.75;100.00
3250;BME280;1637;42.020;23.992;2023-03-16T02:58:05;91717.31;;;6.10;98.37
3250;BME280;1637;42.020;23.992;2023-03-16T03:00:33;91714.50;;;5.94;99.67
3250;BME280;1637;42.020;23.992;2023-03-16T03:03:00;91724.53;;;6.10;99.74
3250;BME280;1637;42.020;23.992;2023-03-16T03:05:27;91715.25;;;5.95;100.00
3250;BME280;1637;42.020;23.992;2023-03-16T03:07:54;91721.00;;;5.86;100.00
3250;BME280;1637;42.020;23.992;2023-03-16T03:10:21;91731.63;;;5.86;100.00
3250;BME280;1637;42.020;23.992;2023-03-16T03:12:48;91729.06;;;5.79;100.00
3250;BME280;1637;42.020;23.992;2023-03-16T03:15:15;91711.13;;;5.90;100.00
3250;BME280;1637;42.020;23.992;2023-03-16T03:17:43;91727.63;;;6.39;98.50
3250;BME280;1637;42.020;23.992;2023-03-16T03:20:12;91706.06;;;6.30;97.91
3250;BME280;1637;42.020;23.992;2023-03-16T03:22:41;91661.19;;;6.05;97.47
3250;BME280;1637;42.020;23.992;2023-03-16T03:25:09;91737.00;;;6.47;98.21
3250;BME280;1637;42.020;23.992;2023-03-16T03:27:36;91736.94;;;6.50;99.27
3250;BME280;1637;42.020;23.992;2023-03-16T03:30:04;91740.06;;;6.15;100.00
3250;BME280;1637;42.020;23.992;2023-03-16T03:32:31;91748.88;;;6.08;100.00
3250;BME280;1637;42.020;23.992;2023-03-16T03:34:59;91750.22;;;5.90;100.00
3250;BME280;1637;42.020;23.992;2023-03-16T03:37:26;91759.59;;;6.01;100.00
3250;BME280;1637;42.020;23.992;2023-03-16T03:39:53;91750.66;;;6.49;100.00
3250;BME280;1637;42.020;23.992;2023-03-16T03:42:20;91757.59;;;6.43;100.00
3250;BME280;1637;42.020;23.992;2023-03-16T03:44:48;91753.50;;;6.35;100.00
3250;BME280;1637;42.020;23.992;2023-03-16T03:47:15;91767.31;;;6.53;100.00
3250;BME280;1637;42.020;23.992;2023-03-16T03:49:42;91762.78;;;6.50;100.00
3250;BME280;1637;42.020;23.992;2023-03-16T03:52:10;91711.91;;;6.21;99.61
3250;BME280;1637;42.020;23.992;2023-03-16T03:54:37;91760.34;;;6.32;100.00
3250;BME280;1637;42.020;23.992;2023-03-16T03:57:04;91763.84;;;6.26;100.00
3250;BME280;1637;42.020;23.992;2023-03-16T03:59:31;91766.34;;;6.06;100.00
3250;BME280;1637;42.020;23.992;2023-03-16T04:01:59;91756.28;;;5.90;100.00
3250;BME280;1637;42.020;23.992;2023-03-16T04:04:26;91769.19;;;5.88;100.00
3250;BME280;1637;42.020;23.992;2023-03-16T04:06:53;91771.63;;;5.72;100.00
3250;BME280;1637;42.020;23.992;2023-03-16T04:09:21;91781.50;;;5.71;100.00
3250;BME280;1637;42.020;23.992;2023-03-16T04:11:48;91775.81;;;5.69;100.00
3250;BME280;1637;42.020;23.992;2023-03-16T04:14:15;91777.25;;;5.81;100.00
3250;BME280;1637;42.020;23.992;2023-03-16T04:16:42;91778.69;;;5.89;100.00
3250;BME280;1637;42.020;23.992;2023-03-16T04:19:09;91778.03;;;5.78;100.00
3250;BME280;1637;42.020;23.992;2023-03-16T04:21:37;91771.78;;;5.58;100.00
3250;BME280;1637;42.020;23.992;2023-03-16T04:24:04;91791.75;;;5.69;100.00
3250;BME280;1637;42.020;23.992;2023-03-16T04:26:33;91791.44;;;5.64;100.00
3250;BME280;1637;42.020;23.992;2023-03-16T04:29:00;91798.91;;;5.79;100.00
3250;BME280;1637;42.020;23.992;2023-03-16T04:31:27;91813.38;;;5.71;98.16
3250;BME280;1637;42.020;23.992;2023-03-16T04:33:54;91812.22;;;5.76;97.06
3250;BME280;1637;42.020;23.992;2023-03-16T04:36:21;91806.13;;;5.75;94.56
3250;BME280;1637;42.020;23.992;2023-03-16T04:38:49;91809.88;;;5.81;93.43
3250;BME280;1637;42.020;23.992;2023-03-16T04:41:17;91811.41;;;5.79;92.33
3250;BME280;1637;42.020;23.992;2023-03-16T04:43:45;91814.44;;;5.81;91.71
3250;BME280;1637;42.020;23.992;2023-03-16T04:46:12;91816.28;;;5.84;91.50
3250;BME280;1637;42.020;23.992;2023-03-16T04:48:39;91820.09;;;5.83;92.12
3250;BME280;1637;42.020;23.992;2023-03-16T04:51:06;91813.56;;;5.95;92.25
3250;BME280;1637;42.020;23.992;2023-03-16T04:53:32;91825.38;;;5.90;91.52
3250;BME280;1637;42.020;23.992;2023-03-16T04:56:00;91819.22;;;6.00;89.60
3250;BME280;1637;42.020;23.992;2023-03-16T04:58:28;91825.88;;;6.15;89.59
3250;BME280;1637;42.020;23.992;2023-03-16T05:00:56;91826.13;;;6.28;89.13
3250;BME280;1637;42.020;23.992;2023-03-16T05:03:23;91834.84;;;6.29;88.77
3250;BME280;1637;42.020;23.992;2023-03-16T05:05:50;91837.31;;;6.12;88.92
3250;BME280;1637;42.020;23.992;2023-03-16T05:08:17;91843.00;;;6.11;88.47
3250;BME280;1637;42.020;23.992;2023-03-16T05:10:44;91845.34;;;6.05;88.60
3250;BME280;1637;42.020;23.992;2023-03-16T05:13:12;91835.84;;;6.04;88.66
3250;BME280;1637;42.020;23.992;2023-03-16T05:15:39;91835.44;;;6.09;88.69
3250;BME280;1637;42.020;23.992;2023-03-16T05:18:07;91739.72;;;5.38;87.50
3250;BME280;1637;42.020;23.992;2023-03-16T05:20:34;91848.41;;;6.04;86.80
3250;BME280;1637;42.020;23.992;2023-03-16T05:23:01;91852.69;;;5.94;87.16
3250;BME280;1637;42.020;23.992;2023-03-16T05:25:28;91844.28;;;5.99;87.32
3250;BME280;1637;42.020;23.992;2023-03-16T05:27:56;91858.28;;;6.03;86.27
3250;BME280;1637;42.020;23.992;2023-03-16T05:30:23;91857.94;;;6.01;87.16
3250;BME280;1637;42.020;23.992;2023-03-16T05:32:51;91850.63;;;6.09;86.25
3250;BME280;1637;42.020;23.992;2023-03-16T05:35:20;91853.59;;;6.18;85.30
3250;BME280;1637;42.020;23.992;2023-03-16T05:37:47;91858.38;;;6.30;86.73
3250;BME280;1637;42.020;23.992;2023-03-16T05:40:14;91856.06;;;6.36;84.46
3250;BME280;1637;42.020;23.992;2023-03-16T05:42:43;91855.31;;;6.35;84.40
3250;BME280;1637;42.020;23.992;2023-03-16T05:45:10;91859.88;;;6.35;84.36
3250;BME280;1637;42.020;23.992;2023-03-16T05:47:37;91860.22;;;6.37;83.50
3250;BME280;1637;42.020;23.992;2023-03-16T05:50:06;91869.34;;;6.36;83.95
3250;BME280;1637;42.020;23.992;2023-03-16T05:52:37;91865.81;;;6.46;83.88
3250;BME280;1637;42.020;23.992;2023-03-16T05:55:05;91839.53;;;6.17;82.95
3250;BME280;1637;42.020;23.992;2023-03-16T05:57:33;91867.22;;;6.58;81.55
3250;BME280;1637;42.020;23.992;2023-03-16T06:00:00;91872.22;;;6.52;81.79
3250;BME280;1637;42.020;23.992;2023-03-16T06:02:36;91869.09;;;6.61;81.55
3250;BME280;1637;42.020;23.992;2023-03-16T06:05:03;91865.81;;;6.80;81.46
3250;BME280;1637;42.020;23.992;2023-03-16T06:07:31;91874.06;;;6.89;79.31
3250;BME280;1637;42.020;23.992;2023-03-16T06:09:59;91878.31;;;6.83;78.49
3250;BME280;1637;42.020;23.992;2023-03-16T06:12:27;91872.31;;;6.75;77.95
3250;BME280;1637;42.020;23.992;2023-03-16T06:14:54;91878.00;;;6.77;78.31
3250;BME280;1637;42.020;23.992;2023-03-16T06:17:20;91881.28;;;6.88;78.29
3250;BME280;1637;42.020;23.992;2023-03-16T06:19:47;91900.31;;;6.87;80.93
3250;BME280;1637;42.020;23.992;2023-03-16T06:22:14;91893.06;;;6.87;81.18
3250;BME280;1637;42.020;23.992;2023-03-16T06:24:42;91902.47;;;6.99;80.34
3250;BME280;1637;42.020;23.992;2023-03-16T06:27:11;91890.78;;;6.89;81.39
3250;BME280;1637;42.020;23.992;2023-03-16T06:29:38;91894.97;;;6.87;83.82
3250;BME280;1637;42.020;23.992;2023-03-16T06:32:05;91897.78;;;7.07;82.76
3250;BME280;1637;42.020;23.992;2023-03-16T06:34:32;91882.44;;;6.87;86.55
3250;BME280;1637;42.020;23.992;2023-03-16T06:37:01;91912.13;;;7.16;88.97
3250;BME280;1637;42.020;23.992;2023-03-16T06:39:28;91915.75;;;7.30;85.55
3250;BME280;1637;42.020;23.992;2023-03-16T06:41:55;91925.25;;;7.31;79.59
3250;BME280;1637;42.020;23.992;2023-03-16T06:44:23;91926.13;;;7.24;77.63
3250;BME280;1637;42.020;23.992;2023-03-16T06:46:50;91932.47;;;7.30;77.98
3250;BME280;1637;42.020;23.992;2023-03-16T06:49:17;91936.41;;;7.22;77.62
3250;BME280;1637;42.020;23.992;2023-03-16T06:51:44;91935.16;;;7.00;78.30
3250;BME280;1637;42.020;23.992;2023-03-16T06:54:10;91941.75;;;6.88;78.97
3250;BME280;1637;42.020;23.992;2023-03-16T06:56:37;91937.13;;;6.92;79.54
3250;BME280;1637;42.020;23.992;2023-03-16T06:59:04;91944.91;;;7.10;79.87
3250;BME280;1637;42.020;23.992;2023-03-16T07:01:32;91949.03;;;7.99;75.17
3250;BME280;1637;42.020;23.992;2023-03-16T07:03:59;91952.59;;;8.39;70.73
3250;BME280;1637;42.020;23.992;2023-03-16T07:06:26;91959.56;;;8.56;70.27
3250;BME280;1637;42.020;23.992;2023-03-16T07:08:53;91956.34;;;9.08;68.80
3250;BME280;1637;42.020;23.992;2023-03-16T07:11:20;91960.69;;;10.26;64.86
3250;BME280;1637;42.020;23.992;2023-03-16T07:13:47;91974.91;;;10.55;63.94
3250;BME280;1637;42.020;23.992;2023-03-16T07:16:14;91976.75;;;10.42;62.55
3250;BME280;1637;42.020;23.992;2023-03-16T07:18:42;91971.72;;;9.00;66.45
3250;BME280;1637;42.020;23.992;2023-03-16T07:21:09;91943.56;;;8.95;65.26
3250;BME280;1637;42.020;23.992;2023-03-16T07:23:36;91984.81;;;10.06;63.04
3250;BME280;1637;42.020;23.992;2023-03-16T07:26:05;91983.25;;;10.09;62.85
3250;BME280;1637;42.020;23.992;2023-03-16T07:28:33;91989.13;;;10.52;62.46
3250;BME280;1637;42.020;23.992;2023-03-16T07:31:00;91991.06;;;9.83;62.56
3250;BME280;1637;42.020;23.992;2023-03-16T07:33:27;91987.16;;;8.92;65.53
3250;BME280;1637;42.020;23.992;2023-03-16T07:35:55;91975.19;;;9.56;64.06
3250;BME280;1637;42.020;23.992;2023-03-16T07:38:22;91999.53;;;10.34;61.50
3250;BME280;1637;42.020;23.992;2023-03-16T07:40:49;91993.50;;;9.94;62.95
3250;BME280;1637;42.020;23.992;2023-03-16T07:43:16;92003.53;;;12.03;56.84
3250;BME280;1637;42.020;23.992;2023-03-16T07:45:46;92009.91;;;11.39;58.07
3250;BME280;1637;42.020;23.992;2023-03-16T07:48:13;92008.59;;;11.72;57.10
3250;BME280;1637;42.020;23.992;2023-03-16T07:50:40;92010.03;;;10.90;57.29
3250;BME280;1637;42.020;23.992;2023-03-16T07:53:09;92004.56;;;10.12;58.74
3250;BME280;1637;42.020;23.992;2023-03-16T07:55:35;92005.56;;;9.66;60.88
3250;BME280;1637;42.020;23.992;2023-03-16T07:58:03;91986.25;;;8.99;62.77
3250;BME280;1637;42.020;23.992;2023-03-16T08:00:30;92006.75;;;9.06;63.04
3250;BME280;1637;42.020;23.992;2023-03-16T08:02:57;92012.28;;;9.15;62.98
3250;BME280;1637;42.020;23.992;2023-03-16T08:05:24;92015.03;;;9.11;63.21
3250;BME280;1637;42.020;23.992;2023-03-16T08:07:52;92011.66;;;9.07;64.13
3250;BME280;1637;42.020;23.992;2023-03-16T08:10:21;92012.00;;;8.89;63.18
3250;BME280;1637;42.020;23.992;2023-03-16T08:12:48;92018.16;;;9.85;61.02
3250;BME280;1637;42.020;23.992;2023-03-16T08:15:16;92014.28;;;9.50;60.95
3250;BME280;1637;42.020;23.992;2023-03-16T08:17:43;92019.41;;;9.21;61.68
3250;BME280;1637;42.020;23.992;2023-03-16T08:20:11;92026.78;;;10.29;59.01
3250;BME280;1637;42.020;23.992;2023-03-16T08:22:39;92031.78;;;9.91;58.32
3250;BME280;1637;42.020;23.992;2023-03-16T08:25:07;92016.75;;;9.41;61.17
3250;BME280;1637;42.020;23.992;2023-03-16T08:27:37;92011.97;;;9.52;59.76
3250;BME280;1637;42.020;23.992;2023-03-16T08:30:06;92018.44;;;10.07;59.61
3250;BME280;1637;42.020;23.992;2023-03-16T08:32:36;92023.66;;;10.14;59.98
3250;BME280;1637;42.020;23.992;2023-03-16T08:35:04;92028.56;;;9.80;59.40
3250;BME280;1637;42.020;23.992;2023-03-16T08:37:31;92025.38;;;9.69;59.97
3250;BME280;1637;42.020;23.992;2023-03-16T08:39:58;92032.31;;;11.74;55.25
3250;BME280;1637;42.020;23.992;2023-03-16T08:42:25;92022.59;;;11.92;55.08
3250;BME280;1637;42.020;23.992;2023-03-16T08:44:54;92035.06;;;10.99;55.97
3250;BME280;1637;42.020;23.992;2023-03-16T08:47:21;92036.34;;;12.07;53.63
3250;BME280;1637;42.020;23.992;2023-03-16T08:49:48;92036.75;;;10.77;56.36
3250;BME280;1637;42.020;23.992;2023-03-16T08:52:16;92034.09;;;11.80;55.17
3250;BME280;1637;42.020;23.992;2023-03-16T08:54:43;92028.56;;;11.13;56.19
3250;BME280;1637;42.020;23.992;2023-03-16T08:57:10;92015.97;;;11.97;53.31
3250;BME280;1637;42.020;23.992;2023-03-16T08:59:37;92025.63;;;12.32;52.64
3250;BME280;1637;42.020;23.992;2023-03-16T09:02:05;92029.28;;;11.59;53.76
3250;BME280;1637;42.020;23.992;2023-03-16T09:04:32;92020.56;;;10.97;55.29
3250;BME280;1637;42.020;23.992;2023-03-16T09:06:59;92009.97;;;10.45;56.39
3250;BME280;1637;42.020;23.992;2023-03-16T09:09:26;91948.91;;;10.23;55.97
3250;BME280;1637;42.020;23.992;2023-03-16T09:11:53;92024.91;;;9.54;58.62
3250;BME280;1637;42.020;23.992;2023-03-16T09:14:20;92035.66;;;9.30;59.85
3250;BME280;1637;42.020;23.992;2023-03-16T09:16:47;92035.00;;;10.54;58.37
3250;BME280;1637;42.020;23.992;2023-03-16T09:19:16;92034.47;;;10.43;57.16
3250;BME280;1637;42.020;23.992;2023-03-16T09:21:43;92037.25;;;10.72;56.12
3250;BME280;1637;42.020;23.992;2023-03-16T09:24:10;92034.00;;;11.10;54.98
3250;BME280;1637;42.020;23.992;2023-03-16T09:26:38;92050.56;;;12.20;52.80
3250;BME280;1637;42.020;23.992;2023-03-16T09:29:05;92048.56;;;11.25;53.70
3250;BME280;1637;42.020;23.992;2023-03-16T09:31:32;92034.06;;;9.92;57.49
3250;BME280;1637;42.020;23.992;2023-03-16T09:34:00;92043.06;;;9.98;57.62
3250;BME280;1637;42.020;23.992;2023-03-16T09:36:28;92054.22;;;10.82;56.44
3250;BME280;1637;42.020;23.992;2023-03-16T09:38:55;92044.59;;;10.84;55.16
3250;BME280;1637;42.020;23.992;2023-03-16T09:41:40;92056.06;;;11.88;53.60
3250;BME280;1637;42.020;23.992;2023-03-16T09:44:20;92050.19;;;11.93;52.46
3250;BME280;1637;42.020;23.992;2023-03-16T09:46:49;92043.44;;;12.01;52.01
3250;BME280;1637;42.020;23.992;2023-03-16T09:49:18;92050.13;;;12.22;51.80
3250;BME280;1637;42.020;23.992;2023-03-16T09:51:50;92053.94;;;11.54;53.51
3250;BME280;1637;42.020;23.992;2023-03-16T09:54:26;92053.25;;;10.76;55.07
3250;BME280;1637;42.020;23.992;2023-03-16T09:56:56;92049.75;;;11.53;53.86
3250;BME280;1637;42.020;23.992;2023-03-16T09:59:24;92047.66;;;11.15;54.45
3250;BME280;1637;42.020;23.992;2023-03-16T10:02:01;92046.06;;;11.01;54.41
3250;BME280;1637;42.020;23.992;2023-03-16T10:04:39;92048.06;;;11.71;53.25
3250;BME280;1637;42.020;23.992;2023-03-16T10:07:18;92060.22;;;11.18;54.57
3250;BME280;1637;42.020;23.992;2023-03-16T10:09:53;92065.81;;;12.23;51.94
3250;BME280;1637;42.020;23.992;2023-03-16T10:12:24;92065.81;;;12.36;51.20
3250;BME280;1637;42.020;23.992;2023-03-16T10:14:56;92057.47;;;13.19;50.50
3250;BME280;1637;42.020;23.992;2023-03-16T10:17:27;92060.66;;;12.67;49.94
3250;BME280;1637;42.020;23.992;2023-03-16T10:19:56;92065.19;;;11.78;51.11
3250;BME280;1637;42.020;23.992;2023-03-16T10:22:29;92031.28;;;10.81;52.38
3250;BME280;1637;42.020;23.992;2023-03-16T10:25:02;92054.63;;;11.70;52.46
3250;BME280;1637;42.020;23.992;2023-03-16T10:27:33;92056.47;;;12.66;50.31
3250;BME280;1637;42.020;23.992;2023-03-16T10:30:05;92061.06;;;11.44;51.08
3250;BME280;1637;42.020;23.992;2023-03-16T10:32:33;92057.56;;;11.76;51.39
3250;BME280;1637;42.020;23.992;2023-03-16T10:35:02;92058.81;;;12.13;50.47
3250;BME280;1637;42.020;23.992;2023-03-16T10:37:34;92052.06;;;11.38;51.20
3250;BME280;1637;42.020;23.992;2023-03-16T10:40:06;92049.81;;;11.49;52.68
3250;BME280;1637;42.020;23.992;2023-03-16T10:42:34;92048.88;;;11.27;53.70
3250;BME280;1637;42.020;23.992;2023-03-16T10:45:01;92051.25;;;11.54;52.88
3250;BME280;1637;42.020;23.992;2023-03-16T10:47:30;92042.72;;;11.71;51.68
3250;BME280;1637;42.020;23.992;2023-03-16T10:49:58;92050.44;;;11.12;51.86
3250;BME280;1637;42.020;23.992;2023-03-16T10:52:39;92043.63;;;10.78;52.80
3250;BME280;1637;42.020;23.992;2023-03-16T10:55:10;92046.78;;;10.89;53.77
3250;BME280;1637;42.020;23.992;2023-03-16T10:57:42;92043.59;;;10.94;52.78
3250;BME280;1637;42.020;23.992;2023-03-16T11:00:18;92046.78;;;10.89;53.78
3250;BME280;1637;42.020;23.992;2023-03-16T11:02:46;92052.22;;;10.70;54.10
3250;BME280;1637;42.020;23.992;2023-03-16T11:05:25;92054.56;;;11.00;52.97
3250;BME280;1637;42.020;23.992;2023-03-16T11:07:58;92053.41;;;11.30;52.69
3250;BME280;1637;42.020;23.992;2023-03-16T11:10:29;92051.66;;;10.78;52.96
3250;BME280;1637;42.020;23.992;2023-03-16T11:13:11;92010.16;;;10.38;52.63
3250;BME280;1637;42.020;23.992;2023-03-16T11:15:44;92048.13;;;10.32;53.49
3250;BME280;1637;42.020;23.992;2023-03-16T11:18:21;92055.47;;;10.61;53.92
3250;BME280;1637;42.020;23.992;2023-03-16T11:20:52;92060.75;;;10.64;53.48
3250;BME280;1637;42.020;23.992;2023-03-16T11:23:28;92049.97;;;10.68;53.14
3250;BME280;1637;42.020;23.992;2023-03-16T11:25:57;92046.47;;;10.55;53.58
3250;BME280;1637;42.020;23.992;2023-03-16T11:28:34;92053.28;;;10.40;54.04
3250;BME280;1637;42.020;23.992;2023-03-16T11:31:11;92048.78;;;10.37;54.21
3250;BME280;1637;42.020;23.992;2023-03-16T11:33:41;92015.41;;;10.41;54.01
3250;BME280;1637;42.020;23.992;2023-03-16T11:36:20;92046.78;;;10.89;52.75
3250;BME280;1637;42.020;23.992;2023-03-16T11:39:01;92042.97;;;11.19;53.17
3250;BME280;1637;42.020;23.992;2023-03-16T11:41:39;92036.66;;;11.26;52.82
3250;BME280;1637;42.020;23.992;2023-03-16T11:44:16;92044.06;;;11.80;52.24
3250;BME280;1637;42.020;23.992;2023-03-16T11:46:54;92048.78;;;11.30;52.48
3250;BME280;1637;42.020;23.992;2023-03-16T11:52:17;92020.78;;;11.19;53.83
3250;BME280;1637;42.020;23.992;2023-03-16T11:54:55;91993.13;;;11.22;53.73
3250;BME280;1637;42.020;23.992;2023-03-16T11:57:30;92057.16;;;11.90;52.82
3250;BME280;1637;42.020;23.992;2023-03-16T12:00:11;92037.63;;;11.03;52.77
3250;BME280;1637;42.020;23.992;2023-03-16T12:02:55;92000.00;;;10.61;54.20
3250;BME280;1637;42.020;23.992;2023-03-16T12:05:40;92046.78;;;10.57;54.50
3250;BME280;1637;42.020;23.992;2023-03-16T12:08:38;92020.75;;;10.25;54.48
3250;BME280;1637;42.020;23.992;2023-03-16T12:11:18;92047.63;;;10.38;54.46
3250;BME280;1637;42.020;23.992;2023-03-16T12:14:04;92043.81;;;9.99;55.83
3250;BME280;1637;42.020;23.992;2023-03-16T12:16:40;92033.31;;;10.08;55.32
3250;BME280;1637;42.020;23.992;2023-03-16T12:19:14;92046.94;;;9.97;56.77
3250;BME280;1637;42.020;23.992;2023-03-16T12:21:45;92055.03;;;9.94;56.56
3250;BME280;1637;42.020;23.992;2023-03-16T12:24:15;92065.09;;;10.06;56.15
3250;BME280;1637;42.020;23.992;2023-03-16T12:26:45;92055.59;;;9.85;56.67
3250;BME280;1637;42.020;23.992;2023-03-16T12:29:20;92057.38;;;9.92;56.40
3250;BME280;1637;42.020;23.992;2023-03-16T12:31:57;92064.34;;;10.06;57.04
3250;BME280;1637;42.020;23.992;2023-03-16T12:34:28;92067.59;;;9.97;56.27
3250;BME280;1637;42.020;23.992;2023-03-16T12:37:04;92068.22;;;9.65;57.03
3250;BME280;1637;42.020;23.992;2023-03-16T12:40:06;92064.78;;;9.64;57.06
3250;BME280;1637;42.020;23.992;2023-03-16T12:42:47;92061.44;;;9.60;57.11
3250;BME280;1637;42.020;23.992;2023-03-16T12:45:25;92060.66;;;9.60;57.54
3250;BME280;1637;42.020;23.992;2023-03-16T12:47:58;92066.78;;;9.41;57.19
3250;BME280;1637;42.020;23.992;2023-03-16T12:50:27;92068.09;;;9.52;58.13
3250;BME280;1637;42.020;23.992;2023-03-16T12:52:54;92063.75;;;9.58;56.76
3250;BME280;1637;42.020;23.992;2023-03-16T12:55:24;92076.59;;;9.67;56.86
3250;BME280;1637;42.020;23.992;2023-03-16T12:57:59;92057.81;;;9.51;57.02
3250;BME280;1637;42.020;23.992;2023-03-16T13:00:35;92072.69;;;9.52;57.12
3250;BME280;1637;42.020;23.992;2023-03-16T13:03:03;92068.50;;;9.71;56.83
3250;BME280;1637;42.020;23.992;2023-03-16T13:05:33;92074.72;;;9.44;57.44
3250;BME280;1637;42.020;23.992;2023-03-16T13:08:06;92103.00;;;9.22;57.68
3250;BME280;1637;42.020;23.992;2023-03-16T13:10:34;92091.88;;;9.67;57.68
3250;BME280;1637;42.020;23.992;2023-03-16T13:13:13;92080.28;;;9.73;55.81
3250;BME280;1637;42.020;23.992;2023-03-16T13:15:42;92091.56;;;9.41;56.91
3250;BME280;1637;42.020;23.992;2023-03-16T13:18:22;92102.81;;;9.33;57.19
3250;BME280;1637;42.020;23.992;2023-03-16T13:20:52;92104.75;;;9.52;56.33
3250;BME280;1637;42.020;23.992;2023-03-16T13:23:22;91998.22;;;8.71;57.11
3250;BME280;1637;42.020;23.992;2023-03-16T13:26:05;92116.75;;;9.44;56.17
3250;BME280;1637;42.020;23.992;2023-03-16T13:28:39;92154.94;;;9.64;57.28
3250;BME280;1637;42.020;23.992;2023-03-16T13:31:19;92117.78;;;9.70;56.30
3250;BME280;1637;42.020;23.992;2023-03-16T13:33:47;92114.28;;;9.10;56.93
3250;BME280;1637;42.020;23.992;2023-03-16T13:36:15;92113.72;;;9.42;56.44